createdAt,value
2022-08-14T00:00:07.038Z,19.6
2022-08-14T00:01:13.459Z,19.5
2022-08-14T00:02:18.572Z,19.6
2022-08-14T00:03:29.340Z,19.6
2022-08-14T00:04:32.310Z,19.6
2022-08-14T00:05:33.886Z,19.6
2022-08-14T00:06:41.722Z,19.6
2022-08-14T00:07:47.246Z,19.6
2022-08-14T00:08:52.124Z,19.5
2022-08-14T00:10:02.359Z,19.6
2022-08-14T00:11:06.510Z,19.6
2022-08-14T00:12:10.684Z,19.5
2022-08-14T00:13:15.250Z,19.6
2022-08-14T00:14:20.274Z,19.6
2022-08-14T00:15:37.597Z,19.6
2022-08-14T00:16:44.952Z,19.5
2022-08-14T00:19:18.990Z,19.5
2022-08-14T00:20:10.479Z,19.5
2022-08-14T00:21:15.171Z,19.6
2022-08-14T00:22:22.005Z,19.6
2022-08-14T00:23:23.986Z,19.6
2022-08-14T00:24:30.723Z,19.6
2022-08-14T00:25:41.522Z,19.5
2022-08-14T00:26:39.295Z,19.6
2022-08-14T00:27:43.594Z,19.6
2022-08-14T00:28:48.366Z,19.5
2022-08-14T00:29:52.946Z,19.5
2022-08-14T00:30:58.902Z,19.5
2022-08-14T00:32:03.229Z,19.6
2022-08-14T00:33:15.581Z,19.5
2022-08-14T00:34:35.674Z,19.6
2022-08-14T00:35:16.898Z,19.5
2022-08-14T00:36:34.719Z,19.6
2022-08-14T00:37:26.022Z,19.6
2022-08-14T00:38:31.778Z,19.5
2022-08-14T00:39:35.124Z,19.6
2022-08-14T00:40:40.338Z,19.6
2022-08-14T00:41:44.974Z,19.5
2022-08-14T00:42:52.432Z,19.5
2022-08-14T00:43:56.293Z,19.5
2022-08-14T00:45:02.991Z,19.5
2022-08-14T00:46:08.144Z,19.6
2022-08-14T00:47:12.109Z,19.6
2022-08-14T00:48:34.176Z,19.5
2022-08-14T00:49:21.434Z,19.5
2022-08-14T00:50:26.562Z,19.5
2022-08-14T00:51:34.581Z,19.5
2022-08-14T00:52:38.142Z,19.5
2022-08-14T00:53:43.045Z,19.5
2022-08-14T00:54:46.766Z,19.4
2022-08-14T00:55:53.842Z,19.4
2022-08-14T00:56:58.354Z,19.5
2022-08-14T00:58:05.890Z,19.4
2022-08-14T00:59:25.606Z,19.4
2022-08-14T01:00:34.567Z,19.5
2022-08-14T01:01:35.812Z,19.5
2022-08-14T01:02:40.177Z,19.5
2022-08-14T01:03:49.772Z,19.5
2022-08-14T01:04:54.114Z,19.4
2022-08-14T01:05:58.198Z,19.5
2022-08-14T01:07:04.800Z,19.5
2022-08-14T01:08:12.717Z,19.5
2022-08-14T01:09:13.405Z,19.5
2022-08-14T01:10:19.955Z,19.5
2022-08-14T01:11:24.821Z,19.4
2022-08-14T01:12:29.987Z,19.3
2022-08-14T01:13:36.072Z,19.4
2022-08-14T01:14:40.802Z,19.4
2022-08-14T01:15:48.479Z,19.4
2022-08-14T01:16:52.920Z,19.4
2022-08-14T01:17:57.837Z,19.4
2022-08-14T01:19:09.025Z,19.4
2022-08-14T01:20:27.389Z,19.4
2022-08-14T01:21:29.197Z,19.4
2022-08-14T01:22:35.221Z,19.3
2022-08-14T01:23:41.917Z,19.3
2022-08-14T01:24:50.856Z,19.3
2022-08-14T01:25:53.620Z,19.3
2022-08-14T01:26:57.999Z,19.3
2022-08-14T01:28:03.435Z,19.3
2022-08-14T01:29:11.022Z,19.3
2022-08-14T01:30:16.889Z,19.4
2022-08-14T01:31:20.885Z,19.4
2022-08-14T01:32:25.605Z,19.4
2022-08-14T01:33:39.624Z,19.4
2022-08-14T01:35:16.211Z,19.4
2022-08-14T01:36:03.204Z,19.4
2022-08-14T01:36:45.817Z,19.4
2022-08-14T01:37:54.938Z,19.3
2022-08-14T01:38:55.005Z,19.4
2022-08-14T01:39:59.402Z,19.4
2022-08-14T01:41:06.337Z,19.4
2022-08-14T01:42:30.935Z,19.4
2022-08-14T01:43:22.080Z,19.4
2022-08-14T01:44:31.133Z,19.4
2022-08-14T01:45:28.737Z,19.4
2022-08-14T01:46:36.593Z,19.3
2022-08-14T01:47:37.773Z,19.4
2022-08-14T01:48:42.633Z,19.4
2022-08-14T01:49:59.238Z,19.3
2022-08-14T01:50:51.833Z,19.4
2022-08-14T01:51:59.597Z,19.3
2022-08-14T01:53:05.458Z,19.3
2022-08-14T01:54:09.746Z,19.3
2022-08-14T01:55:16.897Z,19.3
2022-08-14T01:56:21.149Z,19.3
2022-08-14T01:57:25.382Z,19.3
2022-08-14T01:58:30.243Z,19.3
2022-08-14T01:59:37.713Z,19.3
2022-08-14T02:00:39.649Z,19.3
2022-08-14T02:01:51.129Z,19.3
2022-08-14T02:02:48.961Z,19.3
2022-08-14T02:03:53.365Z,19.3
2022-08-14T02:04:57.847Z,19.3
2022-08-14T02:06:03.768Z,19.3
2022-08-14T02:07:06.993Z,19.3
2022-08-14T02:08:11.736Z,19.4
2022-08-14T02:10:26.168Z,19.4
2022-08-14T02:11:26.985Z,19.4
2022-08-14T02:12:34.236Z,19.4
2022-08-14T02:13:38.989Z,19.4
2022-08-14T02:14:50.765Z,19.4
2022-08-14T02:15:54.908Z,19.4
2022-08-14T02:16:59.736Z,19.4
2022-08-14T02:18:05.205Z,19.4
2022-08-14T02:19:09.880Z,19.4
2022-08-14T02:20:17.133Z,19.4
2022-08-14T02:21:23.059Z,19.4
2022-08-14T02:22:28.567Z,19.4
2022-08-14T02:23:36.253Z,19.4
2022-08-14T02:24:38.520Z,19.4
2022-08-14T02:25:41.772Z,19.4
2022-08-14T02:26:58.505Z,19.4
2022-08-14T02:28:19.616Z,19.4
2022-08-14T02:28:59.959Z,19.4
2022-08-14T02:30:05.496Z,19.4
2022-08-14T02:31:10.522Z,19.4
2022-08-14T02:32:19.944Z,19.4
2022-08-14T02:33:20.067Z,19.4
2022-08-14T02:34:28.516Z,19.4
2022-08-14T02:35:33.292Z,19.4
2022-08-14T02:37:03.075Z,19.4
2022-08-14T02:37:45.720Z,19.4
2022-08-14T02:38:46.661Z,19.4
2022-08-14T02:39:52.526Z,19.4
2022-08-14T02:40:56.758Z,19.3
2022-08-14T02:42:00.972Z,19.3
2022-08-14T02:43:05.755Z,19.3
2022-08-14T02:44:09.884Z,19.3
2022-08-14T02:45:14.376Z,19.3
2022-08-14T02:46:24.594Z,19.3
2022-08-14T02:47:26.624Z,19.3
2022-08-14T02:49:05.065Z,19.3
2022-08-14T02:49:35.539Z,19.4
2022-08-14T02:50:40.700Z,19.4
2022-08-14T02:51:45.400Z,19.3
2022-08-14T02:52:57.017Z,19.3
2022-08-14T02:54:03.757Z,19.3
2022-08-14T02:55:08.868Z,19.3
2022-08-14T02:56:29.820Z,19.3
2022-08-14T02:57:39.545Z,19.3
2022-08-14T02:58:29.153Z,19.3
2022-08-14T02:59:29.369Z,19.3
2022-08-14T03:00:34.549Z,19.3
2022-08-14T03:01:43.226Z,19.3
2022-08-14T03:02:49.280Z,19.3
2022-08-14T03:04:51.820Z,19.3
2022-08-14T03:05:56.532Z,19.3
2022-08-14T03:07:06.866Z,19.3
2022-08-14T03:08:05.668Z,19.3
2022-08-14T03:09:14.420Z,19.3
2022-08-14T03:10:24.578Z,19.3
2022-08-14T03:11:23.403Z,19.3
2022-08-14T03:12:31.100Z,19.3
2022-08-14T03:13:34.180Z,19.3
2022-08-14T03:14:46.225Z,19.3
2022-08-14T03:15:51.070Z,19.3
2022-08-14T03:16:55.631Z,19.3
2022-08-14T03:18:00.235Z,19.3
2022-08-14T03:19:04.783Z,19.3
2022-08-14T03:20:11.160Z,19.3
2022-08-14T03:21:15.431Z,19.3
2022-08-14T03:22:22.115Z,19.3
2022-08-14T03:23:26.528Z,19.3
2022-08-14T03:24:31.431Z,19.3
2022-08-14T03:25:37.435Z,19.3
2022-08-14T03:26:40.379Z,19.3
2022-08-14T03:27:48.170Z,19.2
2022-08-14T03:28:50.124Z,19.2
2022-08-14T03:29:56.227Z,19.2
2022-08-14T03:31:08.191Z,19.2
2022-08-14T03:32:09.283Z,19.2
2022-08-14T03:33:14.102Z,19.2
2022-08-14T03:34:24.445Z,19.2
2022-08-14T03:35:30.912Z,19.2
2022-08-14T03:37:52.171Z,19.2
2022-08-14T03:39:13.508Z,19.2
2022-08-14T03:39:45.251Z,19.2
2022-08-14T03:40:49.699Z,19.2
2022-08-14T03:41:54.175Z,19.2
2022-08-14T03:42:58.475Z,19.2
2022-08-14T03:45:18.091Z,19.2
2022-08-14T03:45:20.436Z,19.2
2022-08-14T03:46:39.287Z,19.2
2022-08-14T03:47:18.723Z,19.2
2022-08-14T03:48:26.828Z,19.2
2022-08-14T03:49:30.638Z,19.2
2022-08-14T03:50:35.695Z,19.2
2022-08-14T03:51:40.004Z,19.3
2022-08-14T03:52:47.980Z,19.2
2022-08-14T03:53:49.351Z,19.2
2022-08-14T03:54:54.059Z,19.3
2022-08-14T03:56:01.687Z,19.3
2022-08-14T03:57:07.740Z,19.3
2022-08-14T03:58:12.976Z,19.3
2022-08-14T03:59:17.601Z,19.3
2022-08-14T04:00:27.759Z,19.3
2022-08-14T04:01:29.115Z,19.3
2022-08-14T04:02:37.334Z,19.3
2022-08-14T04:03:39.082Z,19.3
2022-08-14T04:04:44.386Z,19.3
2022-08-14T04:05:49.371Z,19.3
2022-08-14T04:06:53.591Z,19.3
2022-08-14T04:08:00.539Z,19.3
2022-08-14T04:09:04.791Z,19.3
2022-08-14T04:10:09.103Z,19.3
2022-08-14T04:11:13.766Z,19.3
2022-08-14T04:12:26.055Z,19.3
2022-08-14T04:13:23.723Z,19.3
2022-08-14T04:14:27.011Z,19.3
2022-08-14T04:15:32.239Z,19.3
2022-08-14T04:16:37.330Z,19.3
2022-08-14T04:17:41.802Z,19.3
2022-08-14T04:18:46.533Z,19.3
2022-08-14T04:19:51.251Z,19.3
2022-08-14T04:20:57.090Z,19.3
2022-08-14T04:22:03.853Z,19.3
2022-08-14T04:23:10.506Z,19.4
2022-08-14T04:24:19.354Z,19.4
2022-08-14T04:25:28.248Z,19.4
2022-08-14T04:26:42.090Z,19.4
2022-08-14T04:27:48.811Z,19.4
2022-08-14T04:28:58.534Z,19.4
2022-08-14T04:29:46.190Z,19.4
2022-08-14T04:30:52.147Z,19.4
2022-08-14T04:32:59.365Z,19.4
2022-08-14T04:33:10.769Z,19.4
2022-08-14T04:34:17.409Z,19.4
2022-08-14T04:35:17.764Z,19.4
2022-08-14T04:36:24.259Z,19.4
2022-08-14T04:37:29.137Z,19.4
2022-08-14T04:38:39.710Z,19.4
2022-08-14T04:39:48.408Z,19.4
2022-08-14T04:40:58.208Z,19.4
2022-08-14T04:42:14.092Z,19.4
2022-08-14T04:43:19.663Z,19.4
2022-08-14T04:44:36.436Z,19.4
2022-08-14T04:45:33.723Z,19.4
2022-08-14T04:46:54.990Z,19.3
2022-08-14T04:47:46.451Z,19.4
2022-08-14T04:48:55.367Z,19.3
2022-08-14T04:50:03.419Z,19.4
2022-08-14T04:51:06.983Z,19.4
2022-08-14T04:52:15.292Z,19.4
2022-08-14T04:53:15.966Z,19.4
2022-08-14T04:54:20.619Z,19.4
2022-08-14T04:55:27.691Z,19.4
2022-08-14T04:56:34.445Z,19.4
2022-08-14T04:57:35.647Z,19.4
2022-08-14T04:58:43.779Z,19.4
2022-08-14T04:59:48.544Z,19.4
2022-08-14T05:00:54.307Z,19.5
2022-08-14T05:01:59.088Z,19.4
2022-08-14T05:03:03.489Z,19.4
2022-08-14T05:04:07.843Z,19.4
2022-08-14T05:05:15.884Z,19.4
2022-08-14T05:06:34.845Z,19.4
2022-08-14T05:07:46.288Z,19.4
2022-08-14T05:08:31.523Z,19.4
2022-08-14T05:09:43.841Z,19.4
2022-08-14T05:10:44.357Z,19.4
2022-08-14T05:11:49.027Z,19.4
2022-08-14T05:13:11.369Z,19.4
2022-08-14T05:14:16.366Z,19.4
2022-08-14T05:15:02.887Z,19.4
2022-08-14T05:16:08.695Z,19.4
2022-08-14T05:17:13.027Z,19.4
2022-08-14T05:18:36.973Z,19.5
2022-08-14T05:19:25.171Z,19.5
2022-08-14T05:20:33.537Z,19.5
2022-08-14T05:21:58.520Z,19.5
2022-08-14T05:22:39.055Z,19.5
2022-08-14T05:23:43.919Z,19.5
2022-08-14T05:24:51.585Z,19.5
2022-08-14T05:25:55.847Z,19.5
2022-08-14T05:27:03.067Z,19.5
2022-08-14T05:28:11.365Z,19.4
2022-08-14T05:29:12.506Z,19.3
2022-08-14T05:30:16.891Z,19.4
2022-08-14T05:31:21.407Z,19.4
2022-08-14T05:32:29.423Z,19.5
2022-08-14T05:33:33.755Z,19.5
2022-08-14T05:34:37.988Z,19.5
2022-08-14T05:35:43.563Z,19.5
2022-08-14T05:36:50.480Z,19.5
2022-08-14T05:37:53.303Z,19.5
2022-08-14T05:38:57.691Z,19.5
2022-08-14T05:40:02.614Z,19.6
2022-08-14T05:41:08.222Z,19.6
2022-08-14T05:42:21.836Z,19.6
2022-08-14T05:43:16.283Z,19.5
2022-08-14T05:44:27.975Z,19.4
2022-08-14T05:45:28.759Z,19.5
2022-08-14T05:46:36.255Z,19.5
2022-08-14T05:47:41.903Z,19.5
2022-08-14T05:48:46.671Z,19.5
2022-08-14T05:49:56.785Z,19.5
2022-08-14T05:51:11.631Z,19.5
2022-08-14T05:52:17.863Z,19.5
2022-08-14T05:53:20.715Z,19.5
2022-08-14T05:54:26.818Z,19.5
2022-08-14T05:55:30.351Z,19.5
2022-08-14T05:56:36.857Z,19.5
2022-08-14T05:57:39.171Z,19.5
2022-08-14T05:58:53.831Z,19.5
2022-08-14T05:59:58.343Z,19.4
2022-08-14T06:01:04.047Z,19.5
2022-08-14T06:02:09.886Z,19.5
2022-08-14T06:03:13.136Z,19.4
2022-08-14T06:04:17.895Z,19.5
2022-08-14T06:05:23.274Z,19.5
2022-08-14T06:06:35.068Z,19.5
2022-08-14T06:07:36.007Z,19.5
2022-08-14T06:08:45.659Z,19.4
2022-08-14T06:09:51.035Z,19.5
2022-08-14T06:10:54.802Z,19.5
2022-08-14T06:12:00.507Z,19.5
2022-08-14T06:13:05.039Z,19.5
2022-08-14T06:15:35.664Z,19.5
2022-08-14T06:16:40.515Z,19.5
2022-08-14T06:17:46.060Z,19.5
2022-08-14T06:18:51.974Z,19.5
2022-08-14T06:19:54.299Z,19.5
2022-08-14T06:20:58.739Z,19.5
2022-08-14T06:22:04.233Z,19.5
2022-08-14T06:23:08.795Z,19.5
2022-08-14T06:24:18.224Z,19.6
2022-08-14T06:25:18.289Z,19.6
2022-08-14T06:26:30.111Z,19.6
2022-08-14T06:27:33.848Z,19.6
2022-08-14T06:28:35.251Z,19.6
2022-08-14T06:29:39.698Z,19.6
2022-08-14T06:30:46.571Z,19.6
2022-08-14T06:31:54.738Z,19.6
2022-08-14T06:35:02.098Z,19.7
2022-08-14T06:35:10.515Z,19.7
2022-08-14T06:36:11.707Z,19.7
2022-08-14T06:37:16.764Z,19.7
2022-08-14T06:38:27.043Z,19.7
2022-08-14T06:39:36.197Z,19.7
2022-08-14T06:40:36.664Z,19.7
2022-08-14T06:41:57.417Z,19.7
2022-08-14T06:42:46.410Z,19.7
2022-08-14T06:43:50.847Z,19.7
2022-08-14T06:44:55.246Z,19.7
2022-08-14T06:46:01.518Z,19.7
2022-08-14T06:47:05.906Z,19.8
2022-08-14T06:48:12.583Z,19.7
2022-08-14T06:49:20.179Z,19.7
2022-08-14T06:50:27.898Z,19.7
2022-08-14T06:51:39.101Z,19.7
2022-08-14T06:52:34.171Z,19.7
2022-08-14T06:53:40.691Z,19.7
2022-08-14T06:54:47.632Z,19.8
2022-08-14T06:55:58.644Z,19.8
2022-08-14T06:56:57.117Z,19.8
2022-08-14T06:58:00.922Z,19.7
2022-08-14T06:59:05.483Z,19.8
2022-08-14T07:00:15.234Z,19.8
2022-08-14T07:01:23.369Z,19.8
2022-08-14T07:02:28.732Z,19.8
2022-08-14T07:03:37.057Z,19.8
2022-08-14T07:04:47.199Z,19.8
2022-08-14T07:05:58.380Z,19.8
2022-08-14T07:07:01.655Z,19.8
2022-08-14T07:08:06.551Z,19.8
2022-08-14T07:09:22.508Z,19.8
2022-08-14T07:10:25.815Z,19.8
2022-08-14T07:11:30.203Z,19.8
2022-08-14T07:12:52.359Z,19.9
2022-08-14T07:13:39.443Z,19.8
2022-08-14T07:14:44.028Z,19.8
2022-08-14T07:15:55.062Z,19.8
2022-08-14T07:16:59.560Z,19.9
2022-08-14T07:18:04.861Z,19.9
2022-08-14T07:19:10.111Z,19.9
2022-08-14T07:20:14.872Z,20
2022-08-14T07:21:19.907Z,19.9
2022-08-14T07:22:24.259Z,19.9
2022-08-14T07:23:31.234Z,20
2022-08-14T07:24:37.779Z,20
2022-08-14T07:25:47.147Z,20
2022-08-14T07:26:51.575Z,20
2022-08-14T07:27:55.819Z,20
2022-08-14T07:29:00.291Z,20
2022-08-14T07:30:09.065Z,19.9
2022-08-14T07:31:16.358Z,19.9
2022-08-14T07:32:30.252Z,19.9
2022-08-14T07:33:29.372Z,20
2022-08-14T07:34:36.122Z,20
2022-08-14T07:35:43.185Z,20
2022-08-14T07:36:53.813Z,20.1
2022-08-14T07:37:52.639Z,20.1
2022-08-14T07:38:55.291Z,20.1
2022-08-14T07:40:06.259Z,20.1
2022-08-14T07:42:19.994Z,20
2022-08-14T07:43:25.467Z,20.1
2022-08-14T07:44:31.964Z,20.1
2022-08-14T07:45:38.129Z,20.1
2022-08-14T07:46:45.824Z,20.1
2022-08-14T07:47:50.539Z,20.1
2022-08-14T07:48:55.263Z,20.2
2022-08-14T07:49:59.823Z,20.1
2022-08-14T07:51:11.528Z,20.1
2022-08-14T07:52:21.901Z,20.1
2022-08-14T07:53:21.319Z,20.1
2022-08-14T07:54:29.794Z,20.2
2022-08-14T07:55:30.551Z,20.2
2022-08-14T07:56:44.645Z,20.2
2022-08-14T07:57:39.791Z,20.2
2022-08-14T07:58:51.505Z,20.1
2022-08-14T07:59:49.836Z,20.1
2022-08-14T08:00:56.430Z,20.1
2022-08-14T08:02:02.151Z,20.2
2022-08-14T08:03:06.742Z,20.2
2022-08-14T08:04:16.508Z,20.3
2022-08-14T08:05:15.927Z,20.2
2022-08-14T08:06:20.350Z,20.1
2022-08-14T08:07:29.734Z,20.2
2022-08-14T08:08:31.470Z,20.1
2022-08-14T08:09:35.556Z,20.1
2022-08-14T08:10:46.966Z,20.2
2022-08-14T08:11:46.695Z,20.3
2022-08-14T08:12:51.547Z,20.3
2022-08-14T08:13:56.456Z,20.3
2022-08-14T08:15:02.209Z,20.3
2022-08-14T08:16:05.895Z,20.3
2022-08-14T08:17:10.591Z,20.3
2022-08-14T08:18:20.657Z,20.3
2022-08-14T08:19:19.926Z,20.4
2022-08-14T08:20:24.259Z,20.4
2022-08-14T08:21:28.783Z,20.4
2022-08-14T08:22:38.039Z,20.4
2022-08-14T08:23:43.658Z,20.3
2022-08-14T08:24:47.191Z,20.4
2022-08-14T08:25:52.794Z,20.4
2022-08-14T08:26:57.316Z,20.4
2022-08-14T08:28:08.126Z,20.3
2022-08-14T08:29:14.821Z,20.3
2022-08-14T08:30:19.616Z,20.3
2022-08-14T08:31:24.619Z,20.3
2022-08-14T08:32:29.807Z,20.3
2022-08-14T08:33:41.600Z,20.3
2022-08-14T08:34:46.613Z,20.4
2022-08-14T08:35:51.099Z,20.4
2022-08-14T08:36:55.628Z,20.5
2022-08-14T08:38:00.976Z,20.4
2022-08-14T08:39:16.084Z,20.5
2022-08-14T08:40:12.212Z,20.4
2022-08-14T08:41:22.029Z,20.5
2022-08-14T08:42:31.304Z,20.5
2022-08-14T08:43:30.955Z,20.5
2022-08-14T08:44:35.387Z,20.5
2022-08-14T08:45:39.848Z,20.5
2022-08-14T08:46:44.995Z,20.6
2022-08-14T08:47:49.799Z,20.6
2022-08-14T08:50:22.947Z,20.6
2022-08-14T08:51:18.215Z,20.6
2022-08-14T08:52:29.135Z,20.6
2022-08-14T08:53:36.692Z,20.7
2022-08-14T08:54:41.299Z,20.6
2022-08-14T08:55:46.124Z,20.5
2022-08-14T08:56:52.130Z,20.6
2022-08-14T08:57:55.360Z,20.7
2022-08-14T08:58:59.991Z,20.7
2022-08-14T09:00:09.725Z,20.7
2022-08-14T09:01:15.344Z,20.7
2022-08-14T09:02:20.213Z,20.6
2022-08-14T09:03:25.383Z,20.6
2022-08-14T09:04:30.644Z,20.5
2022-08-14T09:05:37.952Z,20.6
2022-08-14T09:06:53.762Z,20.6
2022-08-14T09:07:56.348Z,20.6
2022-08-14T09:09:12.311Z,20.5
2022-08-14T09:10:22.271Z,20.6
2022-08-14T09:11:27.071Z,20.5
2022-08-14T09:12:31.399Z,20.6
2022-08-14T09:13:37.860Z,20.8
2022-08-14T09:14:45.112Z,20.8
2022-08-14T09:15:49.984Z,20.9
2022-08-14T09:16:54.964Z,21
2022-08-14T09:17:59.463Z,21
2022-08-14T09:19:03.711Z,21.1
2022-08-14T09:20:12.270Z,21.1
2022-08-14T09:21:16.343Z,21.1
2022-08-14T09:22:33.215Z,21.1
2022-08-14T09:23:34.736Z,21.2
2022-08-14T09:24:35.345Z,21.2
2022-08-14T09:25:58.841Z,21.2
2022-08-14T09:26:49.028Z,21.3
2022-08-14T09:27:56.585Z,21.3
2022-08-14T09:29:01.099Z,21.4
2022-08-14T09:30:12.974Z,21.4
2022-08-14T09:31:17.971Z,21.4
2022-08-14T09:32:58.566Z,21.4
2022-08-14T09:33:22.478Z,21.4
2022-08-14T09:34:33.939Z,21.3
2022-08-14T09:35:43.407Z,21
2022-08-14T09:36:47.671Z,21.1
2022-08-14T09:37:57.088Z,21.2
2022-08-14T09:39:13.073Z,21.3
2022-08-14T09:40:24.548Z,21.3
2022-08-14T09:42:18.213Z,21.3
2022-08-14T09:42:50.267Z,21.3
2022-08-14T09:44:04.587Z,21.4
2022-08-14T09:45:08.868Z,21.3
2022-08-14T09:46:25.541Z,21.2
2022-08-14T09:47:26.231Z,21.3
2022-08-14T09:48:41.155Z,21.3
2022-08-14T09:49:47.135Z,21.4
2022-08-14T09:50:50.533Z,21.4
2022-08-14T09:51:58.685Z,21.4
2022-08-14T09:53:05.115Z,21.4
2022-08-14T09:54:13.350Z,21.5
2022-08-14T09:55:15.032Z,21.4
2022-08-14T09:56:24.546Z,21.5
2022-08-14T09:57:24.723Z,21.5
2022-08-14T09:58:29.095Z,21.5
2022-08-14T09:59:41.432Z,21.5
2022-08-14T10:00:48.870Z,21.4
2022-08-14T10:01:56.290Z,21.5
2022-08-14T10:03:00.987Z,21.5
2022-08-14T10:05:08.846Z,21.5
2022-08-14T10:06:12.946Z,21.4
2022-08-14T10:07:17.322Z,21.4
2022-08-14T10:08:22.041Z,21.4
2022-08-14T10:09:25.814Z,21.5
2022-08-14T10:10:34.518Z,21.5
2022-08-14T10:11:35.563Z,21.5
2022-08-14T10:12:39.378Z,21.5
2022-08-14T10:13:53.069Z,21.5
2022-08-14T10:14:53.197Z,21.5
2022-08-14T10:15:53.859Z,21.5
2022-08-14T10:17:01.695Z,21.4
2022-08-14T10:18:06.099Z,21.3
2022-08-14T10:19:13.096Z,21.4
2022-08-14T10:20:39.286Z,21.4
2022-08-14T10:21:22.561Z,21.4
2022-08-14T10:23:13.956Z,21.4
2022-08-14T10:23:34.039Z,21.4
2022-08-14T10:24:43.967Z,21.5
2022-08-14T10:25:48.374Z,21.5
2022-08-14T10:26:55.257Z,21.5
2022-08-14T10:27:57.542Z,21.4
2022-08-14T10:29:04.159Z,21.3
2022-08-14T10:30:12.062Z,21.3
2022-08-14T10:31:14.431Z,21.3
2022-08-14T10:32:28.902Z,21.4
2022-08-14T10:33:28.834Z,21.4
2022-08-14T10:34:35.850Z,21.4
2022-08-14T10:35:37.959Z,21.4
2022-08-14T10:36:45.741Z,21.5
2022-08-14T10:37:47.527Z,21.4
2022-08-14T10:38:52.058Z,21.4
2022-08-14T10:40:01.494Z,21.4
2022-08-14T10:41:02.171Z,21.4
2022-08-14T10:42:16.814Z,21.4
2022-08-14T10:43:17.830Z,21.4
2022-08-14T10:44:23.294Z,21.5
2022-08-14T10:45:27.734Z,21.5
2022-08-14T10:47:37.542Z,21.5
2022-08-14T10:48:07.397Z,21.4
2022-08-14T10:48:48.594Z,21.5
2022-08-14T10:49:55.724Z,21.5
2022-08-14T10:50:59.926Z,21.5
2022-08-14T10:52:05.018Z,21.5
2022-08-14T10:53:09.647Z,21.5
2022-08-14T10:54:16.583Z,21.6
2022-08-14T10:55:20.966Z,21.6
2022-08-14T10:56:32.135Z,21.6
2022-08-14T10:57:31.918Z,21.6
2022-08-14T10:58:36.238Z,21.6
2022-08-14T10:59:43.150Z,21.7
2022-08-14T11:00:49.854Z,21.7
2022-08-14T11:01:54.485Z,21.7
2022-08-14T11:02:59.537Z,21.7
2022-08-14T11:04:03.840Z,21.8
2022-08-14T11:05:08.315Z,21.7
2022-08-14T11:06:17.823Z,21.8
2022-08-14T11:07:22.413Z,21.9
2022-08-14T11:08:26.942Z,21.9
2022-08-14T11:09:32.234Z,21.9
2022-08-14T11:10:36.238Z,22
2022-08-14T11:11:55.123Z,22.1
2022-08-14T11:12:55.622Z,22.3
2022-08-14T11:14:00.285Z,22.3
2022-08-14T11:15:05.318Z,22.4
2022-08-14T11:16:10.637Z,22.5
2022-08-14T11:17:15.545Z,22.6
2022-08-14T11:18:20.257Z,22.7
2022-08-14T11:19:25.192Z,22.6
2022-08-14T11:20:28.833Z,22.7
2022-08-14T11:21:34.079Z,22.8
2022-08-14T11:22:52.258Z,22.9
2022-08-14T11:23:44.901Z,22.9
2022-08-14T11:24:50.235Z,22.6
2022-08-14T11:25:54.045Z,22.6
2022-08-14T11:27:01.297Z,22.9
2022-08-14T11:28:05.721Z,23.1
2022-08-14T11:29:10.637Z,23.1
2022-08-14T11:30:49.551Z,23.3
2022-08-14T11:31:19.634Z,23.3
2022-08-14T11:32:27.133Z,23.3
2022-08-14T11:33:32.417Z,23.4
2022-08-14T11:34:38.101Z,23.5
2022-08-14T11:35:44.426Z,23.5
2022-08-14T11:37:03.019Z,23.6
2022-08-14T11:37:52.769Z,23.6
2022-08-14T11:39:00.633Z,23.6
2022-08-14T11:40:05.248Z,23.8
2022-08-14T11:41:17.039Z,24
2022-08-14T11:43:49.629Z,23.8
2022-08-14T11:44:50.123Z,23.9
2022-08-14T11:45:54.505Z,24
2022-08-14T11:46:58.845Z,24
2022-08-14T11:48:11.236Z,24.1
2022-08-14T11:49:18.938Z,24
2022-08-14T11:50:34.194Z,23.9
2022-08-14T11:51:52.853Z,23.7
2022-08-14T11:52:44.142Z,23.9
2022-08-14T11:53:48.501Z,24
2022-08-14T11:54:56.654Z,24
2022-08-14T11:56:01.197Z,24
2022-08-14T11:57:18.714Z,24.2
2022-08-14T11:59:44.027Z,24.2
2022-08-14T12:00:46.424Z,24.2
2022-08-14T12:01:51.561Z,24.2
2022-08-14T12:03:03.503Z,24.2
2022-08-14T12:05:35.860Z,24
2022-08-14T12:06:48.967Z,23.8
2022-08-14T12:07:56.137Z,23.9
2022-08-14T12:09:00.754Z,24
2022-08-14T12:10:25.376Z,24.2
2022-08-14T12:11:12.886Z,24.3
2022-08-14T12:12:35.453Z,24.3
2022-08-14T12:13:27.329Z,24.2
2022-08-14T12:14:44.387Z,24
2022-08-14T12:15:53.849Z,24
2022-08-14T12:16:59.249Z,24
2022-08-14T12:18:11.301Z,24.1
2022-08-14T12:19:13.801Z,23.9
2022-08-14T12:21:37.773Z,24.1
2022-08-14T12:22:42.225Z,24.1
2022-08-14T12:23:46.374Z,24
2022-08-14T12:25:01.217Z,24.2
2022-08-14T12:26:12.278Z,24.2
2022-08-14T12:27:16.835Z,24.3
2022-08-14T12:28:26.796Z,24.3
2022-08-14T12:29:25.941Z,24.3
2022-08-14T12:30:34.631Z,24.3
2022-08-14T12:31:44.178Z,24.4
2022-08-14T12:32:45.125Z,24.4
2022-08-14T12:33:53.776Z,24.4
2022-08-14T12:34:59.925Z,24.4
2022-08-14T12:36:05.646Z,24.3
2022-08-14T12:37:09.034Z,24.3
2022-08-14T12:39:53.135Z,24.3
2022-08-14T12:41:03.697Z,24.3
2022-08-14T12:42:27.014Z,24.4
2022-08-14T12:43:17.877Z,24.3
2022-08-14T12:44:36.897Z,24.3
2022-08-14T12:47:01.105Z,24.4
2022-08-14T12:48:20.959Z,24.4
2022-08-14T12:49:12.777Z,24.4
2022-08-14T12:50:17.209Z,24.5
2022-08-14T12:51:25.148Z,24.4
2022-08-14T12:52:30.638Z,24.3
2022-08-14T12:53:36.119Z,24.3
2022-08-14T12:54:38.069Z,24.3
2022-08-14T12:57:13.639Z,24.2
2022-08-14T12:58:29.113Z,24.2
2022-08-14T12:59:20.713Z,24.3
2022-08-14T13:00:26.436Z,24.2
2022-08-14T13:01:56.650Z,24.3
2022-08-14T13:02:36.659Z,24.4
2022-08-14T13:03:41.078Z,24.3
2022-08-14T13:04:45.541Z,24.4
2022-08-14T13:05:50.261Z,24.5
2022-08-14T13:06:55.269Z,24.5
2022-08-14T13:09:28.007Z,24.7
2022-08-14T13:11:58.734Z,24.6
2022-08-14T13:13:13.367Z,24.6
2022-08-14T13:14:07.129Z,24.7
2022-08-14T13:15:13.442Z,24.6
2022-08-14T13:16:20.221Z,24.5
2022-08-14T13:17:22.753Z,24.6
2022-08-14T13:18:27.425Z,24.8
2022-08-14T13:19:31.821Z,24.8
2022-08-14T13:20:36.381Z,24.9
2022-08-14T13:21:58.341Z,25
2022-08-14T13:22:48.156Z,25
2022-08-14T13:23:58.182Z,25
2022-08-14T13:25:05.139Z,24.9
2022-08-14T13:26:07.962Z,25
2022-08-14T13:27:12.513Z,24.9
2022-08-14T13:28:30.219Z,25.1
2022-08-14T13:29:24.581Z,25.1
2022-08-14T13:30:32.310Z,25.1
2022-08-14T13:32:57.874Z,25.1
2022-08-14T13:34:02.897Z,25.1
2022-08-14T13:35:10.962Z,25
2022-08-14T13:36:19.925Z,25
2022-08-14T13:37:16.891Z,25.1
2022-08-14T13:38:21.074Z,25.1
2022-08-14T13:39:25.757Z,25.2
2022-08-14T13:40:41.060Z,25.1
2022-08-14T13:41:55.488Z,25.1
2022-08-14T13:42:56.973Z,25.1
2022-08-14T13:44:02.869Z,25.2
2022-08-14T13:45:07.670Z,25.2
2022-08-14T13:46:12.406Z,25.2
2022-08-14T13:47:30.371Z,25.2
2022-08-14T13:50:10.253Z,25.1
2022-08-14T13:51:14.889Z,25.1
2022-08-14T13:52:48.724Z,25.1
2022-08-14T13:53:33.232Z,25.1
2022-08-14T13:54:34.982Z,25.1
2022-08-14T13:55:44.573Z,25.1
2022-08-14T13:56:48.785Z,25.1
2022-08-14T13:58:03.865Z,25.2
2022-08-14T13:58:57.963Z,25.1
2022-08-14T14:00:02.463Z,25.1
2022-08-14T14:01:07.285Z,25.2
2022-08-14T14:02:23.148Z,25.2
2022-08-14T14:03:19.729Z,25.2
2022-08-14T14:04:35.426Z,25.1
2022-08-14T14:05:52.354Z,24.9
2022-08-14T14:06:58.426Z,25
2022-08-14T14:08:05.016Z,25.1
2022-08-14T14:09:11.633Z,25.1
2022-08-14T14:10:23.380Z,25.1
2022-08-14T14:11:26.473Z,25
2022-08-14T14:12:36.771Z,25.1
2022-08-14T14:13:35.167Z,25.1
2022-08-14T14:14:45.385Z,25
2022-08-14T14:15:48.750Z,25
2022-08-14T14:16:52.925Z,25.1
2022-08-14T14:18:03.473Z,25.1
2022-08-14T14:19:18.093Z,25.1
2022-08-14T14:20:34.831Z,25
2022-08-14T14:21:29.762Z,25
2022-08-14T14:23:02.060Z,25
2022-08-14T14:23:48.177Z,25.1
2022-08-14T14:24:54.437Z,25.1
2022-08-14T14:26:03.719Z,25.2
2022-08-14T14:27:30.236Z,25.2
2022-08-14T14:28:12.368Z,25.2
2022-08-14T14:29:16.824Z,25.3
2022-08-14T14:30:29.409Z,25.3
2022-08-14T14:31:29.525Z,25.2
2022-08-14T14:32:34.341Z,25.2
2022-08-14T14:33:47.288Z,25.3
2022-08-14T14:34:44.134Z,25.3
2022-08-14T14:35:49.576Z,25.3
2022-08-14T14:36:55.518Z,25.4
2022-08-14T14:37:58.194Z,25.4
2022-08-14T14:39:11.742Z,25.4
2022-08-14T14:41:45.573Z,25.4
2022-08-14T14:42:51.740Z,25.5
2022-08-14T14:43:56.574Z,25.3
2022-08-14T14:45:12.232Z,25.3
2022-08-14T14:46:16.411Z,25.3
2022-08-14T14:47:40.760Z,25.3
2022-08-14T14:48:59.441Z,25.4
2022-08-14T14:50:14.113Z,25.5
2022-08-14T14:51:20.116Z,25.4
2022-08-14T14:52:37.025Z,25.3
2022-08-14T14:53:39.292Z,25.4
2022-08-14T14:54:43.036Z,25.4
2022-08-14T14:55:54.248Z,25.3
2022-08-14T14:58:07.812Z,25.4
2022-08-14T14:59:12.220Z,25.3
2022-08-14T15:00:19.639Z,25.3
2022-08-14T15:03:10.888Z,25.2
2022-08-14T15:04:37.968Z,25.2
2022-08-14T15:05:41.752Z,25.3
2022-08-14T15:08:56.088Z,25.3
2022-08-14T15:09:41.080Z,25.3
2022-08-14T15:10:46.559Z,25.2
2022-08-14T15:11:49.544Z,25.2
2022-08-14T15:13:05.249Z,25.2
2022-08-14T15:14:54.525Z,25.2